Time;durP1;ratioP1;P1;durP2;ratioP2;P2;SDS_P1;SDS_P2;PMS_P1;PMS_P2;Temp;Humidity;BMP_temperature;BMP_pressure;BME280_temperature;BME280_humidity;BME280_pressure;Samples;Min_cycle;Max_cycle;Signal;HPM_P1;HPM_P2
2021/07/16 00:01:36;;;;;;;25.25;13.60;;;16.60;99.90;;;;;;5031971;28;20033;-69
2021/07/16 00:04:02;;;;;;;28.05;13.50;;;16.60;99.90;;;;;;5030959;28;20373;-69
2021/07/16 00:06:28;;;;;;;32.53;15.10;;;16.60;99.90;;;;;;5026281;28;20029;-70
2021/07/16 00:08:53;;;;;;;27.50;13.90;;;16.60;99.90;;;;;;5033585;28;20029;-70
2021/07/16 00:11:19;;;;;;;33.85;17.35;;;16.60;99.90;;;;;;5024902;28;20061;-70
2021/07/16 00:13:44;;;;;;;27.98;13.02;;;16.60;99.90;;;;;;5029756;28;20040;-70
2021/07/16 00:16:10;;;;;;;24.02;13.82;;;16.60;99.90;;;;;;5016973;28;20085;-70
2021/07/16 00:18:36;;;;;;;30.35;13.45;;;16.60;99.90;;;;;;5026927;28;20037;-70
2021/07/16 00:21:02;;;;;;;28.02;14.45;;;16.60;99.90;;;;;;5025909;28;20033;-71
2021/07/16 00:23:29;;;;;;;28.60;13.68;;;16.60;99.90;;;;;;5029722;28;20034;-70
2021/07/16 00:25:54;;;;;;;24.33;12.65;;;16.60;99.90;;;;;;5031711;28;20040;-70
2021/07/16 00:28:20;;;;;;;32.90;13.48;;;16.60;99.90;;;;;;5026812;28;20042;-70
2021/07/16 00:30:46;;;;;;;30.02;14.00;;;16.60;99.90;;;;;;5030043;28;20034;-70
2021/07/16 00:33:11;;;;;;;28.27;15.05;;;16.60;99.90;;;;;;5030560;28;20503;-69
2021/07/16 00:35:37;;;;;;;31.27;14.80;;;16.60;99.90;;;;;;5031429;28;20026;-70
2021/07/16 00:38:03;;;;;;;29.95;14.07;;;16.60;99.90;;;;;;5023159;28;20025;-70
2021/07/16 00:40:28;;;;;;;31.55;14.52;;;16.60;99.90;;;;;;5028284;28;20100;-70
2021/07/16 00:42:54;;;;;;;25.83;13.75;;;16.50;99.90;;;;;;5030359;28;20028;-69
2021/07/16 00:45:20;;;;;;;30.52;14.38;;;16.50;99.90;;;;;;5034131;28;20099;-69
2021/07/16 00:47:47;;;;;;;33.63;14.10;;;16.50;99.90;;;;;;5035377;28;20114;-69
2021/07/16 00:50:16;;;;;;;24.05;13.63;;;16.50;99.90;;;;;;5032559;28;20071;-70
2021/07/16 00:52:43;;;;;;;31.48;14.57;;;16.50;99.90;;;;;;5018448;28;20022;-69
2021/07/16 00:55:10;;;;;;;28.52;15.38;;;16.50;99.90;;;;;;5029501;28;20391;-69
2021/07/16 00:57:37;;;;;;;31.38;14.68;;;16.50;99.90;;;;;;5028254;28;20460;-69
2021/07/16 01:00:05;;;;;;;33.30;15.82;;;16.50;99.90;;;;;;5031191;28;20036;-70
2021/07/16 01:02:31;;;;;;;28.85;14.45;;;16.50;99.90;;;;;;5019898;28;20036;-69
2021/07/16 01:04:56;;;;;;;31.38;15.05;;;16.50;99.90;;;;;;5025057;28;20034;-70
2021/07/16 01:07:24;;;;;;;32.13;14.25;;;16.50;99.90;;;;;;5030542;28;20037;-70
2021/07/16 01:09:51;;;;;;;31.33;14.30;;;16.50;99.90;;;;;;5031466;28;20495;-69
2021/07/16 01:12:19;;;;;;;30.65;14.10;;;16.50;99.90;;;;;;5031810;28;20044;-70
2021/07/16 01:14:45;;;;;;;26.80;14.95;;;16.50;99.90;;;;;;5024575;28;20026;-69
2021/07/16 01:17:11;;;;;;;33.53;15.57;;;16.50;99.90;;;;;;5032139;28;20204;-70
2021/07/16 01:19:57;;;;;;;27.10;14.73;;;16.50;99.90;;;;;;5025011;28;20030;-70
2021/07/16 01:22:26;;;;;;;30.92;15.75;;;16.50;99.90;;;;;;5033605;28;20056;-70
2021/07/16 01:24:52;;;;;;;30.50;15.75;;;16.50;99.90;;;;;;5024632;28;20053;-70
2021/07/16 01:27:19;;;;;;;32.33;16.10;;;16.50;99.90;;;;;;5033619;28;20522;-70
2021/07/16 01:29:48;;;;;;;34.05;15.60;;;16.40;99.90;;;;;;5027718;28;20083;-69
2021/07/16 01:32:16;;;;;;;35.67;15.73;;;16.50;99.90;;;;;;5024545;28;20061;-69
2021/07/16 01:34:42;;;;;;;33.70;15.68;;;16.40;99.90;;;;;;5032883;28;20043;-69
2021/07/16 01:37:08;;;;;;;29.73;15.40;;;16.40;99.90;;;;;;5030040;28;20534;-70
2021/07/16 01:39:33;;;;;;;32.00;15.65;;;16.50;99.90;;;;;;5031077;28;20034;-70
2021/07/16 01:42:05;;;;;;;33.38;17.67;;;16.40;99.90;;;;;;5032272;28;20044;-69
2021/07/16 01:44:31;;;;;;;34.05;15.93;;;16.40;99.90;;;;;;5032131;28;20030;-69
2021/07/16 01:46:56;;;;;;;36.63;17.08;;;16.40;99.90;;;;;;5033455;28;20026;-69
2021/07/16 01:49:22;;;;;;;29.65;15.00;;;16.40;99.90;;;;;;5029975;28;20442;-69
2021/07/16 01:51:47;;;;;;;27.67;14.35;;;16.40;99.90;;;;;;5025208;28;20041;-69
2021/07/16 01:54:13;;;;;;;34.38;16.35;;;16.40;99.90;;;;;;5030983;28;20042;-69
2021/07/16 01:56:38;;;;;;;38.50;16.25;;;16.40;99.90;;;;;;5033023;28;20109;-69
2021/07/16 01:59:04;;;;;;;37.03;17.50;;;16.40;99.90;;;;;;5031765;28;20080;-69
2021/07/16 02:01:32;;;;;;;34.72;15.18;;;16.40;99.90;;;;;;5030621;28;20443;-69
2021/07/16 02:03:57;;;;;;;39.85;17.35;;;16.40;99.90;;;;;;5029790;28;20392;-69
2021/07/16 02:06:23;;;;;;;34.53;15.80;;;16.40;99.90;;;;;;5033696;28;20040;-69
2021/07/16 02:08:48;;;;;;;42.42;17.15;;;16.40;99.90;;;;;;5033378;28;20037;-69
2021/07/16 02:11:15;;;;;;;36.28;16.27;;;16.40;99.90;;;;;;5031170;28;20095;-70
2021/07/16 02:13:41;;;;;;;37.88;17.02;;;16.40;99.90;;;;;;5029691;28;20072;-70
2021/07/16 02:16:06;;;;;;;38.13;17.83;;;16.40;99.90;;;;;;5028338;28;20483;-68
2021/07/16 02:18:33;;;;;;;37.75;16.27;;;16.40;99.90;;;;;;5034075;28;20052;-69
2021/07/16 02:20:58;;;;;;;35.88;16.75;;;16.40;99.90;;;;;;5020440;28;20451;-69
2021/07/16 02:23:29;;;;;;;48.60;18.77;;;16.40;99.90;;;;;;5019589;28;20056;-68
2021/07/16 02:25:55;;;;;;;33.80;16.42;;;16.40;99.90;;;;;;5028337;28;20571;-68
2021/07/16 02:28:26;;;;;;;47.35;19.10;;;16.40;99.90;;;;;;5024744;28;20483;-68
2021/07/16 02:30:53;;;;;;;45.40;17.83;;;16.40;99.90;;;;;;5029689;28;20029;-69
2021/07/16 02:33:18;;;;;;;41.10;17.88;;;16.40;99.90;;;;;;5024407;28;20030;-69
2021/07/16 02:35:46;;;;;;;37.67;17.48;;;16.40;99.90;;;;;;5033198;28;20033;-69
2021/07/16 02:38:12;;;;;;;40.53;19.58;;;16.30;99.90;;;;;;5023490;28;20037;-68
2021/07/16 02:40:38;;;;;;;32.83;17.58;;;16.40;99.90;;;;;;5030243;28;20472;-68
2021/07/16 02:43:05;;;;;;;41.70;19.25;;;16.30;99.90;;;;;;5017637;28;20116;-68
2021/07/16 02:45:31;;;;;;;39.33;17.52;;;16.30;99.90;;;;;;5030341;28;20033;-69
2021/07/16 02:47:57;;;;;;;37.00;18.40;;;16.30;99.90;;;;;;5032441;28;20055;-68
2021/07/16 02:50:25;;;;;;;42.00;17.25;;;16.30;99.90;;;;;;5032127;28;20484;-68
2021/07/16 02:52:52;;;;;;;37.67;17.40;;;16.30;99.90;;;;;;5026179;28;20506;-68
2021/07/16 02:55:18;;;;;;;31.63;16.77;;;16.30;99.90;;;;;;5031526;28;20064;-68
2021/07/16 02:57:44;;;;;;;38.25;19.33;;;16.20;99.90;;;;;;5028734;28;20025;-68
2021/07/16 03:00:11;;;;;;;39.83;17.73;;;16.20;99.90;;;;;;5027408;28;20092;-68
2021/07/16 03:02:39;;;;;;;39.20;17.17;;;16.20;99.90;;;;;;5017312;28;20041;-69
2021/07/16 03:05:05;;;;;;;42.10;17.33;;;16.20;99.90;;;;;;5029925;28;20125;-69
2021/07/16 03:07:33;;;;;;;41.25;18.25;;;16.20;99.90;;;;;;5027553;28;20121;-68
2021/07/16 03:09:59;;;;;;;31.65;15.70;;;16.10;99.90;;;;;;5022386;28;20041;-69
2021/07/16 03:12:24;;;;;;;32.92;17.38;;;16.10;99.90;;;;;;5024049;28;20021;-68
2021/07/16 03:14:50;;;;;;;31.30;15.75;;;16.10;99.90;;;;;;5029762;28;20112;-68
2021/07/16 03:17:15;;;;;;;30.27;16.38;;;16.10;99.90;;;;;;5031390;28;20076;-68
2021/07/16 03:19:41;;;;;;;32.45;15.38;;;16.10;99.90;;;;;;5028862;28;20030;-69
2021/07/16 03:22:06;;;;;;;30.23;15.63;;;16.00;99.90;;;;;;5030276;28;20392;-68
2021/07/16 03:24:32;;;;;;;44.42;17.55;;;16.00;99.90;;;;;;5031477;28;20041;-68
2021/07/16 03:26:57;;;;;;;41.47;16.50;;;16.00;99.90;;;;;;5031447;28;20029;-69
2021/07/16 03:29:23;;;;;;;35.22;16.15;;;16.00;99.90;;;;;;5027805;28;20037;-69
2021/07/16 03:31:48;;;;;;;45.47;16.42;;;16.00;99.90;;;;;;5019304;28;20044;-69
2021/07/16 03:34:14;;;;;;;40.30;17.75;;;16.00;99.90;;;;;;5029843;28;20112;-69
2021/07/16 03:36:39;;;;;;;43.97;18.20;;;16.00;99.90;;;;;;5036599;28;20033;-69
2021/07/16 03:39:06;;;;;;;35.13;16.73;;;15.90;99.90;;;;;;5024788;28;20029;-69
2021/07/16 03:41:31;;;;;;;37.92;18.42;;;15.90;99.90;;;;;;5019798;28;20124;-69
2021/07/16 03:43:57;;;;;;;37.60;16.17;;;15.90;99.90;;;;;;5033093;28;20113;-70
2021/07/16 03:46:27;;;;;;;33.67;14.88;;;15.90;99.90;;;;;;5034277;28;20048;-70
2021/07/16 03:48:54;;;;;;;34.58;14.82;;;15.90;99.90;;;;;;5029477;28;20041;-70
2021/07/16 03:51:19;;;;;;;35.05;15.45;;;15.90;99.90;;;;;;5031181;28;20519;-70
2021/07/16 03:53:45;;;;;;;30.55;15.15;;;15.90;99.90;;;;;;5033621;28;20101;-69
2021/07/16 03:56:10;;;;;;;33.25;18.27;;;15.90;99.90;;;;;;5036621;28;20022;-70
2021/07/16 03:58:36;;;;;;;36.17;16.63;;;15.90;99.90;;;;;;5026953;28;20635;-70
2021/07/16 04:01:01;;;;;;;38.20;15.75;;;15.90;99.90;;;;;;5035474;28;20025;-70
2021/07/16 04:03:27;;;;;;;37.20;16.42;;;15.90;99.90;;;;;;5026728;28;20117;-68
2021/07/16 04:05:53;;;;;;;39.42;16.20;;;15.90;99.90;;;;;;5035669;28;20369;-68
2021/07/16 04:08:19;;;;;;;46.28;15.40;;;15.90;99.90;;;;;;5033080;28;20108;-68
2021/07/16 04:10:45;;;;;;;34.45;14.90;;;15.90;99.90;;;;;;5036409;28;20092;-68
2021/07/16 04:13:12;;;;;;;32.55;15.80;;;15.90;99.90;;;;;;5029823;28;20436;-68
2021/07/16 04:15:39;;;;;;;32.45;16.17;;;15.90;99.90;;;;;;5029744;28;20125;-68
2021/07/16 04:18:06;;;;;;;31.50;15.43;;;15.90;99.90;;;;;;5023340;28;20045;-69
2021/07/16 04:20:33;;;;;;;36.17;16.23;;;15.90;99.90;;;;;;5033670;28;20045;-68
2021/07/16 04:23:00;;;;;;;39.15;15.50;;;15.90;99.90;;;;;;5029071;28;20113;-68
2021/07/16 04:25:26;;;;;;;40.92;17.42;;;15.90;99.90;;;;;;5031663;28;20075;-68
2021/07/16 04:27:54;;;;;;;34.10;15.02;;;15.90;99.90;;;;;;5018601;28;20373;-68
2021/07/16 04:30:21;;;;;;;32.95;15.48;;;15.90;99.90;;;;;;5034607;28;20272;-68
2021/07/16 04:32:48;;;;;;;41.70;15.25;;;15.90;99.90;;;;;;5034038;28;20073;-68
2021/07/16 04:35:15;;;;;;;37.45;15.82;;;15.90;99.90;;;;;;5027982;28;20026;-68
2021/07/16 04:37:41;;;;;;;32.10;14.60;;;16.00;99.90;;;;;;5026943;28;20029;-68
2021/07/16 04:40:10;;;;;;;37.15;15.65;;;15.90;99.90;;;;;;5035155;28;20026;-68
2021/07/16 04:42:36;;;;;;;33.50;14.63;;;16.00;99.90;;;;;;5035030;28;20029;-68
2021/07/16 04:45:02;;;;;;;37.35;14.65;;;16.00;99.90;;;;;;5030013;28;20026;-68
2021/07/16 04:47:27;;;;;;;37.05;15.00;;;16.00;99.90;;;;;;5034469;28;20052;-68
2021/07/16 04:49:53;;;;;;;35.92;15.70;;;16.10;99.90;;;;;;5028982;28;20025;-68
2021/07/16 04:52:19;;;;;;;36.70;14.77;;;16.10;99.90;;;;;;5027501;28;20369;-68
2021/07/16 04:54:45;;;;;;;32.33;14.45;;;16.10;99.90;;;;;;5027358;28;20025;-68
2021/07/16 04:57:11;;;;;;;34.33;13.93;;;16.10;99.90;;;;;;5031243;28;20025;-69
2021/07/16 04:59:37;;;;;;;35.13;14.00;;;16.10;99.90;;;;;;5026894;28;20026;-69
2021/07/16 05:02:04;;;;;;;30.55;13.82;;;16.20;99.90;;;;;;5033084;28;20022;-69
2021/07/16 05:04:29;;;;;;;33.47;14.27;;;16.20;99.90;;;;;;5034643;28;20207;-69
2021/07/16 05:06:55;;;;;;;32.83;13.63;;;16.20;99.90;;;;;;5029172;28;20025;-69
2021/07/16 05:09:21;;;;;;;33.38;12.98;;;16.20;99.90;;;;;;5026512;28;20387;-69
2021/07/16 05:11:49;;;;;;;32.03;13.05;;;16.30;99.90;;;;;;5031559;28;20383;-69
2021/07/16 05:14:15;;;;;;;30.08;14.02;;;16.30;99.90;;;;;;5028917;28;20373;-69
2021/07/16 05:16:40;;;;;;;29.83;12.35;;;16.30;99.90;;;;;;5034713;28;20048;-68
2021/07/16 05:19:06;;;;;;;32.47;11.18;;;16.30;99.90;;;;;;5024009;28;20479;-69
2021/07/16 05:21:33;;;;;;;30.27;12.82;;;16.30;99.90;;;;;;5027888;28;20060;-69
2021/07/16 05:23:59;;;;;;;38.15;14.20;;;16.40;99.90;;;;;;5019618;28;21291;-69
2021/07/16 05:26:24;;;;;;;30.25;13.02;;;16.40;99.90;;;;;;5035589;28;20476;-69
2021/07/16 05:28:52;;;;;;;38.08;12.20;;;16.40;99.90;;;;;;5030310;28;20037;-69
2021/07/16 05:31:18;;;;;;;39.17;12.63;;;16.50;99.90;;;;;;5033785;28;20033;-69
2021/07/16 05:33:45;;;;;;;26.88;12.25;;;16.50;99.90;;;;;;5032109;28;20037;-70
2021/07/16 05:36:11;;;;;;;24.35;12.02;;;16.60;99.90;;;;;;5031113;28;20434;-70
2021/07/16 05:38:37;;;;;;;35.58;11.90;;;16.70;99.90;;;;;;5028570;28;20013;-70
2021/07/16 05:41:05;;;;;;;34.42;13.93;;;16.70;99.90;;;;;;5026603;28;20483;-70
2021/07/16 05:43:30;;;;;;;31.15;12.35;;;16.70;99.90;;;;;;5031845;28;20052;-71
2021/07/16 05:45:56;;;;;;;26.13;11.32;;;16.80;99.90;;;;;;5032389;28;20384;-69
2021/07/16 05:48:22;;;;;;;30.52;11.45;;;16.90;99.90;;;;;;5029532;28;20468;-69
2021/07/16 05:50:48;;;;;;;39.90;13.10;;;16.90;99.90;;;;;;5033107;28;20036;-69
2021/07/16 05:53:14;;;;;;;31.27;12.88;;;17.00;99.90;;;;;;5034257;28;20038;-69
2021/07/16 05:55:40;;;;;;;33.40;12.80;;;16.90;99.90;;;;;;5030472;28;20027;-69
2021/07/16 05:58:06;;;;;;;32.70;12.23;;;17.00;99.90;;;;;;5028668;28;20022;-69
2021/07/16 06:00:34;;;;;;;27.95;12.65;;;17.10;99.90;;;;;;5019722;28;20034;-69
2021/07/16 06:02:59;;;;;;;34.80;12.88;;;17.10;99.90;;;;;;5025451;28;20052;-69
2021/07/16 06:05:25;;;;;;;29.13;12.00;;;17.20;99.90;;;;;;5032224;28;20025;-70
2021/07/16 06:07:51;;;;;;;29.38;11.93;;;17.20;99.90;;;;;;5024705;28;20097;-70
2021/07/16 06:10:16;;;;;;;30.52;10.70;;;17.20;99.90;;;;;;5031310;28;20033;-70
2021/07/16 06:12:42;;;;;;;30.80;12.10;;;17.20;99.90;;;;;;5033758;28;20026;-69
2021/07/16 06:15:09;;;;;;;30.73;11.75;;;17.30;99.90;;;;;;5028304;28;20022;-70
2021/07/16 06:17:35;;;;;;;28.60;11.75;;;17.30;99.90;;;;;;5030761;28;20049;-72
2021/07/16 06:20:03;;;;;;;28.58;12.07;;;17.30;99.90;;;;;;5029648;28;20021;-68
2021/07/16 06:22:29;;;;;;;29.80;10.88;;;17.40;99.90;;;;;;5032372;28;20076;-68
2021/07/16 06:24:54;;;;;;;35.10;11.40;;;17.40;99.90;;;;;;5031110;28;20399;-69
2021/07/16 06:27:20;;;;;;;33.47;11.13;;;17.50;99.90;;;;;;5030771;28;20433;-68
2021/07/16 06:29:45;;;;;;;25.80;10.63;;;17.50;99.90;;;;;;5033140;28;20496;-68
2021/07/16 06:32:11;;;;;;;27.95;11.00;;;17.50;99.90;;;;;;5033554;28;20516;-68
2021/07/16 06:34:39;;;;;;;30.02;11.23;;;17.50;99.90;;;;;;5032490;28;20396;-68
2021/07/16 06:37:05;;;;;;;30.35;10.93;;;17.60;99.90;;;;;;5032551;28;20036;-68
2021/07/16 06:39:30;;;;;;;32.80;10.68;;;17.60;99.90;;;;;;5031732;28;20120;-68
2021/07/16 06:41:56;;;;;;;26.65;10.40;;;17.70;99.90;;;;;;5022548;28;20384;-68
2021/07/16 06:44:21;;;;;;;23.67;9.23;;;17.70;99.90;;;;;;5024815;28;20029;-68
2021/07/16 06:46:47;;;;;;;26.05;9.77;;;17.60;99.90;;;;;;5026474;28;20022;-68
2021/07/16 06:49:12;;;;;;;24.80;9.35;;;17.60;99.90;;;;;;5023430;28;20029;-69
2021/07/16 06:51:38;;;;;;;27.38;10.23;;;17.50;99.90;;;;;;5023523;28;20029;-69
2021/07/16 06:54:04;;;;;;;25.83;11.15;;;17.50;99.90;;;;;;5026979;28;20041;-68
2021/07/16 06:56:31;;;;;;;29.60;10.02;;;17.50;99.90;;;;;;5030408;28;20031;-68
2021/07/16 06:58:59;;;;;;;28.65;10.30;;;17.50;99.90;;;;;;5032680;28;20510;-68
2021/07/16 07:01:25;;;;;;;22.55;9.20;;;17.60;99.90;;;;;;5028725;28;20035;-69
2021/07/16 07:03:50;;;;;;;27.80;9.95;;;17.60;99.90;;;;;;5032695;28;20026;-69
2021/07/16 07:06:16;;;;;;;23.17;8.63;;;17.70;99.90;;;;;;5025410;28;20438;-69
2021/07/16 07:08:42;;;;;;;27.30;9.18;;;17.80;99.90;;;;;;5030066;28;20041;-69
2021/07/16 07:11:09;;;;;;;30.05;8.88;;;17.80;99.90;;;;;;5031733;28;20491;-69
2021/07/16 07:13:34;;;;;;;21.42;8.35;;;17.80;99.90;;;;;;5030843;28;20030;-69
2021/07/16 07:16:00;;;;;;;26.30;9.30;;;17.80;99.90;;;;;;5021492;28;20026;-69
2021/07/16 07:18:26;;;;;;;24.20;8.55;;;17.80;99.90;;;;;;5030493;28;20053;-69
2021/07/16 07:20:53;;;;;;;23.65;9.10;;;17.80;99.90;;;;;;5031260;28;20037;-68
2021/07/16 07:23:19;;;;;;;23.33;8.15;;;17.80;99.90;;;;;;5027589;28;20400;-69
2021/07/16 07:25:45;;;;;;;25.30;8.75;;;17.90;99.90;;;;;;5031698;28;20044;-69
2021/07/16 07:28:11;;;;;;;27.27;8.05;;;17.80;99.90;;;;;;5032709;28;20537;-69
2021/07/16 07:30:37;;;;;;;26.25;9.15;;;17.90;99.90;;;;;;5031820;28;20037;-69
2021/07/16 07:33:06;;;;;;;29.45;8.35;;;17.90;99.90;;;;;;5027434;28;20026;-69
2021/07/16 07:35:33;;;;;;;26.75;7.78;;;17.90;99.90;;;;;;5029635;28;20060;-69
2021/07/16 07:38:03;;;;;;;27.15;9.55;;;17.90;99.90;;;;;;5030103;28;20492;-70
2021/07/16 07:40:29;;;;;;;23.08;7.47;;;17.90;99.90;;;;;;5032248;28;20083;-70
2021/07/16 07:42:55;;;;;;;23.73;7.38;;;17.80;99.90;;;;;;5018405;28;20034;-70
2021/07/16 07:45:21;;;;;;;25.10;7.45;;;17.90;99.90;;;;;;5031962;28;20501;-69
2021/07/16 07:47:47;;;;;;;28.17;7.68;;;17.90;99.90;;;;;;5030168;28;20026;-70
2021/07/16 07:50:16;;;;;;;28.95;6.75;;;17.90;99.90;;;;;;5019721;28;20025;-69
2021/07/16 07:52:42;;;;;;;25.80;7.38;;;17.90;99.90;;;;;;5019986;28;20048;-70
2021/07/16 07:55:09;;;;;;;21.77;6.85;;;17.90;99.90;;;;;;5030643;28;20037;-70
2021/07/16 07:57:35;;;;;;;23.80;8.13;;;17.90;99.90;;;;;;5032225;28;20040;-69
2021/07/16 08:00:00;;;;;;;29.52;7.80;;;17.90;99.90;;;;;;5029107;28;20026;-69
2021/07/16 08:02:26;;;;;;;26.48;7.43;;;17.90;99.90;;;;;;5021371;28;20388;-70
2021/07/16 08:04:52;;;;;;;22.85;7.88;;;17.90;99.90;;;;;;5027309;28;20034;-70
2021/07/16 08:07:17;;;;;;;24.48;10.10;;;18.00;99.90;;;;;;5017110;28;20105;-70
2021/07/16 08:09:43;;;;;;;33.35;8.02;;;18.00;99.90;;;;;;5024505;28;20392;-70
2021/07/16 08:12:09;;;;;;;23.08;6.80;;;17.90;99.90;;;;;;5022211;28;20038;-68
2021/07/16 08:14:35;;;;;;;25.75;6.30;;;17.90;99.90;;;;;;5025662;28;20036;-69
2021/07/16 08:17:00;;;;;;;25.02;7.03;;;17.90;99.90;;;;;;5030321;28;20140;-69
2021/07/16 08:19:26;;;;;;;30.40;7.00;;;17.90;99.90;;;;;;5032295;28;20032;-68
2021/07/16 08:21:53;;;;;;;32.72;7.93;;;17.90;99.90;;;;;;5029626;28;20022;-68
2021/07/16 08:24:20;;;;;;;26.23;6.93;;;17.90;99.90;;;;;;5033119;28;20484;-69
2021/07/16 08:26:47;;;;;;;26.30;6.95;;;17.90;99.90;;;;;;5030236;28;20080;-68
2021/07/16 08:29:13;;;;;;;27.35;7.47;;;17.90;99.90;;;;;;5025128;28;20057;-69
2021/07/16 08:31:39;;;;;;;22.98;8.23;;;17.90;99.90;;;;;;5028375;28;20034;-69
2021/07/16 08:34:06;;;;;;;20.90;9.13;;;18.00;99.90;;;;;;5025874;28;20025;-69
2021/07/16 08:36:32;;;;;;;31.92;10.70;;;18.00;99.90;;;;;;5032915;28;20471;-69
2021/07/16 08:38:57;;;;;;;25.08;11.02;;;18.00;99.90;;;;;;5028716;28;20075;-69
2021/07/16 08:41:24;;;;;;;28.83;9.27;;;18.00;99.90;;;;;;5024242;28;20528;-69
2021/07/16 08:43:50;;;;;;;27.33;10.25;;;18.00;99.90;;;;;;5034357;28;20490;-69
2021/07/16 08:46:17;;;;;;;29.55;10.25;;;18.00;99.90;;;;;;5031343;28;20034;-69
2021/07/16 08:48:43;;;;;;;29.05;10.93;;;18.10;99.90;;;;;;5030948;28;20523;-69
2021/07/16 08:51:09;;;;;;;26.55;10.68;;;18.20;99.90;;;;;;5035061;28;20113;-69
2021/07/16 08:53:35;;;;;;;27.67;10.63;;;18.30;99.90;;;;;;5034728;28;20021;-69
2021/07/16 08:56:00;;;;;;;25.73;10.35;;;18.50;99.90;;;;;;5035414;28;20032;-69
2021/07/16 08:58:26;;;;;;;29.65;11.45;;;18.60;99.90;;;;;;5035031;28;20032;-69
2021/07/16 09:00:53;;;;;;;25.75;9.20;;;18.70;99.90;;;;;;5035192;28;20030;-70
2021/07/16 09:03:18;;;;;;;31.52;10.13;;;18.80;99.90;;;;;;5031209;28;20432;-70
2021/07/16 09:05:45;;;;;;;25.02;9.40;;;18.90;99.90;;;;;;5025956;28;20103;-69
2021/07/16 09:08:15;;;;;;;25.73;9.52;;;19.00;99.90;;;;;;5025281;28;20040;-69
2021/07/16 09:10:54;;;;;;;34.47;9.80;;;19.00;99.90;;;;;;5023773;28;20366;-69
2021/07/16 09:13:21;;;;;;;32.85;9.85;;;19.00;99.90;;;;;;5029629;28;20044;-69
2021/07/16 09:15:49;;;;;;;21.27;9.80;;;19.10;99.90;;;;;;5033494;28;20037;-69
2021/07/16 09:18:21;;;;;;;20.98;9.68;;;19.10;99.90;;;;;;5023764;28;20512;-69
2021/07/16 09:21:02;;;;;;;;;;;19.10;99.90;;;;;;5014563;28;20026;-69
2021/07/16 09:23:35;;;;;;;22.73;7.93;;;19.20;99.90;;;;;;5025237;28;20287;-69
2021/07/16 09:26:09;;;;;;;29.90;9.05;;;19.20;99.90;;;;;;5032546;28;20411;-69
2021/07/16 09:28:36;;;;;;;26.30;7.78;;;19.20;99.90;;;;;;5031469;28;20087;-69
2021/07/16 09:31:15;;;;;;;35.28;9.40;;;19.30;99.90;;;;;;5033662;28;20021;-69
2021/07/16 09:33:43;;;;;;;25.08;9.27;;;19.40;99.90;;;;;;5029720;28;20092;-69
2021/07/16 09:36:09;;;;;;;31.50;8.27;;;19.50;99.90;;;;;;5028261;28;20044;-69
2021/07/16 09:38:35;;;;;;;25.25;8.77;;;19.70;99.90;;;;;;5016041;28;20032;-70
2021/07/16 09:41:06;;;;;;;26.17;8.30;;;19.80;99.90;;;;;;5034377;28;20045;-69
2021/07/16 09:43:31;;;;;;;28.13;7.93;;;20.00;99.90;;;;;;5022416;28;20100;-67
2021/07/16 09:45:59;;;;;;;29.23;8.02;;;20.10;99.90;;;;;;5027208;28;20471;-69
2021/07/16 09:48:35;;;;;;;33.28;8.23;;;20.20;99.90;;;;;;5031398;28;20026;-68
2021/07/16 09:51:15;;;;;;;38.50;9.27;;;20.20;99.90;;;;;;5032332;28;20037;-68
2021/07/16 09:53:42;;;;;;;30.05;7.78;;;20.20;99.90;;;;;;5033414;28;20116;-69
2021/07/16 09:56:22;;;;;;;28.83;7.65;;;20.00;99.90;;;;;;5031962;28;20017;-68
2021/07/16 09:58:49;;;;;;;25.65;7.85;;;19.90;99.90;;;;;;5032851;28;20024;-69
2021/07/16 10:01:15;;;;;;;32.45;7.90;;;19.70;99.90;;;;;;5038128;28;20053;-70
2021/07/16 10:03:42;;;;;;;32.53;8.45;;;19.50;99.90;;;;;;5032489;28;20065;-69
2021/07/16 10:06:12;;;;;;;29.48;9.07;;;19.30;99.90;;;;;;5025393;28;20116;-69
2021/07/16 10:08:39;;;;;;;23.13;7.03;;;19.10;99.90;;;;;;5032233;28;20442;-69
2021/07/16 10:11:06;;;;;;;24.08;7.68;;;18.90;99.90;;;;;;5034220;28;20056;-69
2021/07/16 10:13:36;;;;;;;32.40;8.10;;;18.80;99.90;;;;;;5029628;28;20044;-69
2021/07/16 10:16:03;;;;;;;23.95;7.63;;;18.70;99.90;;;;;;5032047;28;20048;-69
2021/07/16 10:18:29;;;;;;;24.58;8.38;;;18.60;99.90;;;;;;5031088;28;20080;-69
2021/07/16 10:20:58;;;;;;;20.90;8.07;;;18.50;99.90;;;;;;5032625;28;20475;-69
2021/07/16 10:23:26;;;;;;;28.83;8.38;;;18.40;99.90;;;;;;5033689;28;20030;-70
2021/07/16 10:25:52;;;;;;;31.25;9.10;;;18.30;99.90;;;;;;5030349;28;20034;-69
2021/07/16 10:28:39;;;;;;;28.65;9.05;;;18.30;99.90;;;;;;5030135;28;21274;-68
2021/07/16 10:31:34;;;;;;;29.13;8.32;;;18.20;99.90;;;;;;5033240;28;20073;-68
2021/07/16 10:34:10;;;;;;;45.28;9.88;;;18.20;99.90;;;;;;5020293;28;20029;-69
2021/07/16 10:36:45;;;;;;;32.58;8.80;;;18.20;99.90;;;;;;5031933;28;20555;-69
2021/07/16 10:39:12;;;;;;;25.48;8.23;;;18.30;99.90;;;;;;5029768;28;20361;-69
2021/07/16 10:41:40;;;;;;;30.23;8.45;;;18.40;99.90;;;;;;5025170;28;20018;-68
2021/07/16 10:44:07;;;;;;;32.05;7.85;;;18.40;99.90;;;;;;5017924;28;20448;-69
2021/07/16 10:46:35;;;;;;;25.75;8.50;;;18.40;99.90;;;;;;5023619;28;20491;-69
2021/07/16 10:49:02;;;;;;;26.58;9.05;;;18.40;99.90;;;;;;5031542;28;20033;-69
2021/07/16 10:51:30;;;;;;;30.98;8.88;;;18.40;99.90;;;;;;5028070;28;20045;-69
2021/07/16 10:53:58;;;;;;;27.13;8.65;;;18.40;99.90;;;;;;5022074;28;20030;-69
2021/07/16 10:56:43;;;;;;;23.42;7.40;;;18.50;99.90;;;;;;5021457;28;20052;-69
2021/07/16 10:59:11;;;;;;;27.50;9.27;;;18.60;99.90;;;;;;5025011;28;20108;-69
2021/07/16 11:01:39;;;;;;;27.58;7.82;;;18.60;99.90;;;;;;5025762;28;20025;-69
2021/07/16 11:04:07;;;;;;;35.60;8.18;;;18.70;99.90;;;;;;5031323;28;20041;-69
2021/07/16 11:06:47;;;;;;;32.58;7.80;;;18.80;99.90;;;;;;5028969;28;20036;-69
2021/07/16 11:09:34;;;;;;;27.13;7.30;;;19.00;99.90;;;;;;5024179;28;20030;-69
2021/07/16 11:12:24;;;;;;;23.98;7.03;;;19.20;99.90;;;;;;5020104;28;20134;-70
2021/07/16 11:14:51;;;;;;;28.13;7.63;;;19.50;99.90;;;;;;5032241;28;20022;-69
2021/07/16 11:17:27;;;;;;;24.92;6.40;;;19.70;99.90;;;;;;5030643;28;20116;-69
2021/07/16 11:20:16;;;;;;;21.13;6.60;;;19.90;99.90;;;;;;5029012;28;20021;-69
2021/07/16 11:23:01;;;;;;;21.25;6.28;;;20.00;99.90;;;;;;5032442;28;20076;-70
2021/07/16 11:25:28;;;;;;;28.33;6.10;;;20.00;99.90;;;;;;5022486;28;20022;-69
2021/07/16 11:27:54;;;;;;;29.77;7.68;;;20.10;99.90;;;;;;5021726;28;20080;-70
2021/07/16 11:30:19;;;;;;;17.88;5.50;;;20.20;99.90;;;;;;5028351;28;20471;-69
2021/07/16 11:32:45;;;;;;;22.33;6.05;;;20.30;99.90;;;;;;5032579;28;20100;-69
2021/07/16 11:35:13;;;;;;;32.22;8.48;;;20.40;99.90;;;;;;5032059;28;20116;-68
2021/07/16 11:37:40;;;;;;;37.33;9.15;;;20.40;99.90;;;;;;5030166;28;20017;-68
2021/07/16 11:40:23;;;;;;;19.73;6.13;;;20.40;99.90;;;;;;5030816;28;20024;-69
2021/07/16 11:42:54;;;;;;;24.30;6.50;;;20.30;99.90;;;;;;5033449;28;20097;-68
2021/07/16 11:45:30;;;;;;;21.67;6.05;;;20.30;99.90;;;;;;5035464;28;20033;-68
2021/07/16 11:47:57;;;;;;;23.80;5.57;;;20.30;99.90;;;;;;5025108;28;20032;-68
2021/07/16 11:50:23;;;;;;;23.52;6.18;;;20.40;99.90;;;;;;5027218;28;20033;-68
2021/07/16 11:52:51;;;;;;;22.23;6.25;;;20.50;99.90;;;;;;5018698;28;20491;-68
2021/07/16 11:55:25;;;;;;;21.05;5.68;;;20.60;99.90;;;;;;5015386;28;20496;-70
2021/07/16 11:58:01;;;;;;;26.88;6.57;;;20.70;99.90;;;;;;5021835;28;20041;-69
2021/07/16 12:00:28;;;;;;;25.40;5.85;;;20.90;99.90;;;;;;5012849;28;20052;-68
2021/07/16 12:03:29;;;;;;;20.73;5.85;;;20.90;99.90;;;;;;5023798;28;20025;-69
2021/07/16 12:05:57;;;;;;;25.33;5.72;;;21.00;99.90;;;;;;5018343;28;20403;-68
2021/07/16 12:08:31;;;;;;;21.15;4.55;;;20.90;99.90;;;;;;5026442;28;20025;-68
2021/07/16 12:11:11;;;;;;;17.73;5.05;;;21.00;99.90;;;;;;5028029;28;20030;-68
2021/07/16 12:13:40;;;;;;;21.30;5.60;;;20.90;99.90;;;;;;5038079;28;20060;-69
2021/07/16 12:16:12;;;;;;;26.65;5.00;;;20.70;99.90;;;;;;5043910;28;20021;-68
2021/07/16 12:18:39;;;;;;;24.40;5.72;;;20.60;99.90;;;;;;5019078;28;20104;-69
2021/07/16 12:21:10;;;;;;;22.48;5.40;;;20.60;99.90;;;;;;5030116;28;20050;-68
2021/07/16 12:23:36;;;;;;;22.10;5.93;;;20.70;99.90;;;;;;5037526;28;20602;-68
2021/07/16 12:26:11;;;;;;;27.35;7.10;;;20.70;99.90;;;;;;5049892;28;20078;-69
2021/07/16 12:28:37;;;;;;;22.90;5.85;;;20.80;99.90;;;;;;5038100;28;20105;-69
2021/07/16 12:31:02;;;;;;;29.25;7.85;;;20.90;99.90;;;;;;5045493;28;20111;-69
2021/07/16 12:33:35;;;;;;;27.17;6.72;;;20.90;99.90;;;;;;5038754;28;21899;-69